Airfield :
LOGIN :

Register | Disclaimer

   EN    FR    IT 

 










Legend :    VFR   Marginal VFR   IFR   Intensive IFR   Very Intensive IFR
Visi :
Ceiling :
>= 8 km
>= 3000ft
5 to 8 km
1000 to 3000 ft
1500m to 5 km
500 to 1000 ft
800 to 1500m
200 to 500 ft
< 800m
< 200 ft
Symbols :   Thunderstorms  Fog  Heavy snow  Heavy precipitations  Wind > 20 kt
SIGMETs :     Misc.  Thunderstorms  Icing  Turbulence  Mountain Waves  Volcanic Ashes






- Airport Elevation : 348 ft
- IATA code : LDV


LFRJ - Landivisiau

CURRENT METAR :
  • 231930Z AUTO 31004KT 280V340 CAVOK 11/07 Q1019 NOSIG

EXPIRED METARs :
  • 231900Z AUTO 33006KT 9999 FEW028 12/07 Q1019 NOSIG
  • 231830Z AUTO 33008KT 300V360 9999 BKN031 BKN037 13/07 Q1019 NOSIG
  • 231800Z AUTO 32009KT 9999 FEW030 13/07 Q1019 NOSIG
  • 231730Z AUTO 33009KT 310V010 9999 SCT029 13/07 Q1019 NOSIG
  • 231700Z AUTO 32010KT 290V360 9999 BKN028 14/08 Q1019 NOSIG
  • 231630Z AUTO 32011KT 290V350 9999 BKN028 14/08 Q1019 NOSIG
  • 231600Z AUTO 34011KT 300V010 9999 BKN026 14/08 Q1019 NOSIG
  • 231530Z AUTO 33011KT 300V010 9999 BKN023 BKN028 BKN043 14/09 Q1018 NOSIG
  • 231500Z AUTO 34011KT 310V010 9999 BKN023 BKN029 BKN040 14/10 Q1018 NOSIG

TAF TAF LFRJ
Valid from the 23 at 18:00 until the 24 at 03:00 UTC


231700Z 2318/2403 32009KT 9999 BKN028



MET'MAP, your aeronautical weather chart ! - Copyright ORBIFLY December 2007 - Disclaimer

ORBIFLY MET'MAP TEAM :

Programming & Development : Alexandra Zaïnal
Original concept : Baudouin d'Aumeries
Technical & hardware support : Manuel Goepfert
Assistance : Marc-Olivier Méhu




SOURCES & CREDITS :

   NOAA